Aviation Digital Data Service (ADDS)

Output produced by METARs form (0250 UTC 16 July 2019)
found at http://www.aviationweather.gov/metar/data/
 
Forecast for: VGEG (CHITTAGONG (CV/M, BD)
Text: TAF VGEG 152300Z 1600/1706 20006KT 3500 HZ SCT013 SCT100
Forecast period: 0000 to 0400 UTC 16 July 2019
Forecast type: FROM: standard forecast or significant change
Winds: from the SSW (200 degrees) at 7 MPH (6 knots; 3.1 m/s)
Visibility: 2.17 miles (3.49 km)
Ceiling: at least 12,000 feet AGL
Clouds: scattered clouds at 1300 feet AGL
scattered clouds at 10000 feet AGL
Weather: HZ  (haze)
Text: BECMG 1604/1606 23012/15KT 2500 RA/DZ SCT012 FEW027CB BKN090
Forecast period: 0400 to 2300 UTC 16 July 2019
Forecast type: BECOMING: Conditions expected to become as follows by 0600 UTC 16 July 2019
Winds: from the SW (230 degrees) at 14 MPH (12 knots; 6.2 m/s)
gusting to 17 MPH (15 knots; 7.7 m/s)
Visibility: 1.55 miles (2.49 km)
Ceiling: 9000 feet AGL
Clouds: scattered clouds at 1200 feet AGL
few clouds at 2700 feet AGL
broken clouds at 9000 feet AGL
Weather: RA DZ  (moderate rain, moderate drizzle)
Text: BECMG 1623/1701 00000KT 3500 HZ SCT013 BKN100
Forecast period: 2300 UTC 16 July 2019 to 0600 UTC 17 July 2019
Forecast type: BECOMING: Conditions expected to become as follows by 0100 UTC 17 July 2019
Winds: calm
Visibility: 2.17 miles (3.49 km)
Ceiling: 10000 feet AGL
Clouds: scattered clouds at 1300 feet AGL
broken clouds at 10000 feet AGL
Weather: HZ  (haze)